Time;durP1;ratioP1;P1;durP2;ratioP2;P2;SDS_P1;SDS_P2;PMS_P1;PMS_P2;Temp;Humidity;BMP_temperature;BMP_pressure;BME280_temperature;BME280_humidity;BME280_pressure;Samples;Min_cycle;Max_cycle;Signal;HPM_P1;HPM_P2
2023/03/09 00:01:23;;;;;;;17.10;10.10;;;;;;;;;;5043859;28;20519;-72
2023/03/09 00:03:49;;;;;;;16.40;10.20;;;;;;;;;;5064019;28;20461;-72
2023/03/09 00:06:15;;;;;;;17.77;10.48;;;;;;;;;;5060074;28;20377;-72
2023/03/09 00:08:41;;;;;;;15.50;11.07;;;;;;;;;;5033801;28;20053;-72
2023/03/09 00:11:07;;;;;;;16.33;10.45;;;;;;;;;;5066170;28;20066;-72
2023/03/09 00:13:33;;;;;;;15.20;11.13;;;;;;;;;;5053832;28;20075;-72
2023/03/09 00:16:09;;;;;;;16.10;10.77;;;;;;;;;;5058394;28;20045;-72
2023/03/09 00:18:35;;;;;;;17.30;11.35;;;;;;;;;;5051963;28;20080;-72
2023/03/09 00:21:02;;;;;;;14.38;9.43;;;;;;;;;;5051920;28;20087;-72
2023/03/09 00:23:29;;;;;;;19.63;11.32;;;;;;;;;;5032907;28;20139;-72
2023/03/09 00:25:55;;;;;;;15.80;10.57;;;;;;;;;;5067041;28;20093;-72
2023/03/09 00:28:21;;;;;;;15.40;10.73;;;;;;;;;;5066433;28;20482;-72
2023/03/09 00:30:47;;;;;;;16.00;11.07;;;;;;;;;;5050206;28;20053;-72
2023/03/09 00:33:13;;;;;;;15.32;10.45;;;;;;;;;;5067084;28;20137;-72
2023/03/09 00:35:39;;;;;;;17.63;10.35;;;;;;;;;;5045855;28;20041;-72
2023/03/09 00:38:05;;;;;;;17.00;10.80;;;;;;;;;;5033129;28;20110;-72
2023/03/09 00:40:31;;;;;;;16.48;10.75;;;;;;;;;;5034616;28;20049;-72
2023/03/09 00:42:57;;;;;;;17.80;11.13;;;;;;;;;;5040439;28;20055;-72
2023/03/09 00:45:23;;;;;;;17.23;10.90;;;;;;;;;;5047723;28;20055;-72
2023/03/09 00:47:49;;;;;;;15.07;10.40;;;;;;;;;;5065202;28;20049;-72
2023/03/09 00:50:15;;;;;;;18.27;10.68;;;;;;;;;;5074902;28;20040;-72
2023/03/09 00:52:41;;;;;;;17.70;10.77;;;;;;;;;;5044723;28;20392;-72
2023/03/09 00:55:08;;;;;;;16.33;10.65;;;;;;;;;;5052735;28;20076;-72
2023/03/09 00:57:34;;;;;;;17.38;11.25;;;;;;;;;;5066798;28;20048;-72
2023/03/09 01:00:00;;;;;;;20.73;12.05;;;;;;;;;;5056894;28;20044;-72
2023/03/09 01:02:26;;;;;;;17.00;10.45;;;;;;;;;;5056172;28;20119;-72
2023/03/09 01:04:52;;;;;;;18.52;11.15;;;;;;;;;;5053730;28;20103;-72
2023/03/09 01:07:19;;;;;;;18.15;11.15;;;;;;;;;;5036665;28;20057;-72
2023/03/09 01:09:45;;;;;;;15.65;10.45;;;;;;;;;;5037062;28;20401;-72
2023/03/09 01:12:11;;;;;;;16.50;10.95;;;;;;;;;;5036861;28;20102;-72
2023/03/09 01:14:37;;;;;;;15.02;10.40;;;;;;;;;;5072885;28;20499;-72
2023/03/09 01:17:03;;;;;;;17.55;10.13;;;;;;;;;;5074606;28;20044;-72
2023/03/09 01:19:30;;;;;;;19.42;11.52;;;;;;;;;;5074716;28;20049;-72
2023/03/09 01:21:56;;;;;;;18.80;11.90;;;;;;;;;;5056885;28;20052;-73
2023/03/09 01:24:22;;;;;;;15.77;10.35;;;;;;;;;;5074403;28;20052;-73
2023/03/09 01:26:49;;;;;;;17.02;11.02;;;;;;;;;;5050704;28;20056;-73
2023/03/09 01:29:15;;;;;;;17.80;11.23;;;;;;;;;;5054279;28;20079;-73
2023/03/09 01:31:41;;;;;;;17.45;11.43;;;;;;;;;;5042126;28;20075;-72
2023/03/09 01:34:07;;;;;;;19.55;10.95;;;;;;;;;;5070562;28;20071;-73
2023/03/09 01:36:33;;;;;;;17.17;11.02;;;;;;;;;;5054421;28;20087;-73
2023/03/09 01:38:59;;;;;;;16.65;11.13;;;;;;;;;;5035986;28;20087;-73
2023/03/09 01:41:25;;;;;;;16.25;11.40;;;;;;;;;;5055369;28;20123;-73
2023/03/09 01:43:52;;;;;;;17.77;10.68;;;;;;;;;;5074215;28;20059;-72
2023/03/09 01:46:30;;;;;;;19.30;12.65;;;;;;;;;;5071351;28;20057;-72
2023/03/09 01:49:26;;;;;;;20.48;12.05;;;;;;;;;;5065538;28;20089;-73
2023/03/09 01:51:52;;;;;;;19.27;11.98;;;;;;;;;;5022895;28;20164;-72
2023/03/09 01:54:24;;;;;;;21.58;12.23;;;;;;;;;;5063785;28;20440;-73
2023/03/09 01:56:53;;;;;;;19.88;11.68;;;;;;;;;;5049773;28;20048;-72
2023/03/09 01:59:19;;;;;;;18.25;11.65;;;;;;;;;;5053983;28;20393;-73
2023/03/09 02:01:45;;;;;;;19.30;12.57;;;;;;;;;;5062392;28;20066;-73
2023/03/09 02:04:13;;;;;;;17.27;11.65;;;;;;;;;;5055614;28;20045;-73
2023/03/09 02:06:39;;;;;;;19.35;11.98;;;;;;;;;;5074043;28;20059;-73
2023/03/09 02:09:20;;;;;;;17.77;12.02;;;;;;;;;;5055489;28;20063;-73
2023/03/09 02:11:46;;;;;;;17.50;11.35;;;;;;;;;;5056066;28;20101;-73
2023/03/09 02:14:13;;;;;;;16.92;11.00;;;;;;;;;;5060612;28;20036;-73
2023/03/09 02:16:39;;;;;;;17.98;11.18;;;;;;;;;;5035936;28;20055;-73
2023/03/09 02:19:06;;;;;;;16.20;10.82;;;;;;;;;;5035638;28;20037;-72
2023/03/09 02:21:44;;;;;;;17.38;11.15;;;;;;;;;;5053548;28;20462;-73
2023/03/09 02:24:16;;;;;;;16.70;11.00;;;;;;;;;;5035128;28;20528;-73
2023/03/09 02:26:45;;;;;;;15.85;10.70;;;;;;;;;;5063730;28;20052;-73
2023/03/09 02:29:12;;;;;;;18.40;11.52;;;;;;;;;;5038969;28;20127;-73
2023/03/09 02:31:38;;;;;;;18.95;10.93;;;;;;;;;;5069942;28;20051;-73
2023/03/09 02:34:04;;;;;;;18.23;11.63;;;;;;;;;;5035011;28;20041;-73
2023/03/09 02:36:30;;;;;;;19.20;12.40;;;;;;;;;;5069162;28;20050;-73
2023/03/09 02:38:58;;;;;;;21.77;13.13;;;;;;;;;;5050524;28;20040;-73
2023/03/09 02:41:24;;;;;;;19.60;12.07;;;;;;;;;;5062466;28;20041;-72
2023/03/09 02:43:51;;;;;;;22.92;13.20;;;;;;;;;;5050955;28;20055;-73
2023/03/09 02:46:17;;;;;;;20.83;13.00;;;;;;;;;;5035393;28;20072;-72
2023/03/09 02:48:43;;;;;;;22.17;12.93;;;;;;;;;;5052550;28;20045;-72
2023/03/09 02:51:09;;;;;;;21.83;12.63;;;;;;;;;;5060887;28;20036;-73
2023/03/09 02:53:35;;;;;;;22.75;12.52;;;;;;;;;;5060031;28;20094;-73
2023/03/09 02:56:02;;;;;;;22.88;13.18;;;;;;;;;;5053935;28;20097;-73
2023/03/09 02:58:28;;;;;;;22.70;13.27;;;;;;;;;;5037368;28;20036;-72
2023/03/09 03:00:54;;;;;;;24.50;13.25;;;;;;;;;;5049428;28;20167;-73
2023/03/09 03:03:20;;;;;;;25.48;13.77;;;;;;;;;;5052537;28;20041;-73
2023/03/09 03:05:49;;;;;;;22.50;13.98;;;;;;;;;;5052614;28;20482;-72
2023/03/09 03:08:15;;;;;;;25.88;15.35;;;;;;;;;;5017942;28;20053;-72
2023/03/09 03:10:41;;;;;;;26.38;14.38;;;;;;;;;;5052833;28;20128;-72
2023/03/09 03:13:07;;;;;;;25.05;13.98;;;;;;;;;;5055425;28;20051;-73
2023/03/09 03:15:34;;;;;;;23.83;14.27;;;;;;;;;;5048460;28;20052;-72
2023/03/09 03:18:00;;;;;;;22.98;14.57;;;;;;;;;;5064907;28;20048;-72
2023/03/09 03:20:26;;;;;;;22.45;14.20;;;;;;;;;;5053788;28;20048;-73
2023/03/09 03:22:52;;;;;;;24.95;14.80;;;;;;;;;;5072170;28;20087;-73
2023/03/09 03:25:18;;;;;;;24.92;14.93;;;;;;;;;;5052678;28;20044;-73
2023/03/09 03:27:45;;;;;;;26.02;15.05;;;;;;;;;;5070281;28;20044;-73
2023/03/09 03:30:11;;;;;;;24.77;14.57;;;;;;;;;;5052253;28;20083;-73
2023/03/09 03:32:38;;;;;;;24.00;15.23;;;;;;;;;;5068141;28;20113;-73
2023/03/09 03:35:04;;;;;;;26.60;15.23;;;;;;;;;;5051024;28;20040;-73
2023/03/09 03:37:30;;;;;;;24.25;15.10;;;;;;;;;;5033591;28;20080;-73
2023/03/09 03:39:56;;;;;;;27.38;15.13;;;;;;;;;;5062704;28;20478;-73
2023/03/09 03:42:22;;;;;;;22.77;14.05;;;;;;;;;;5051829;28;20052;-73
2023/03/09 03:44:48;;;;;;;25.65;14.95;;;;;;;;;;5063903;28;20041;-73
2023/03/09 03:47:14;;;;;;;24.75;15.00;;;;;;;;;;5054597;28;20037;-72
2023/03/09 03:49:40;;;;;;;25.75;14.77;;;;;;;;;;5038185;28;20046;-72
2023/03/09 03:52:07;;;;;;;24.73;15.45;;;;;;;;;;5042685;28;20060;-73
2023/03/09 03:54:33;;;;;;;23.35;14.80;;;;;;;;;;5051951;28;20049;-73
2023/03/09 03:56:59;;;;;;;24.08;15.02;;;;;;;;;;5032083;28;20097;-73
2023/03/09 03:59:25;;;;;;;29.33;16.35;;;;;;;;;;5049873;28;20037;-73
2023/03/09 04:01:51;;;;;;;25.25;15.98;;;;;;;;;;5034383;28;20068;-73
2023/03/09 04:04:17;;;;;;;24.67;15.05;;;;;;;;;;5051871;28;20409;-73
2023/03/09 04:06:43;;;;;;;26.17;16.00;;;;;;;;;;5051774;28;20045;-73
2023/03/09 04:09:09;;;;;;;26.27;15.88;;;;;;;;;;5051608;28;20485;-73
2023/03/09 04:11:35;;;;;;;28.45;16.80;;;;;;;;;;5052138;28;20414;-73
2023/03/09 04:14:01;;;;;;;27.67;16.95;;;;;;;;;;5051803;28;20453;-72
2023/03/09 04:16:28;;;;;;;29.45;17.27;;;;;;;;;;5056126;28;20049;-73
2023/03/09 04:18:54;;;;;;;28.27;17.33;;;;;;;;;;5067455;28;20396;-72
2023/03/09 04:21:20;;;;;;;26.88;17.77;;;;;;;;;;5041207;28;20048;-73
2023/03/09 04:23:48;;;;;;;27.20;17.73;;;;;;;;;;5075272;28;20051;-73
2023/03/09 04:26:14;;;;;;;26.95;16.67;;;;;;;;;;5058117;28;20084;-72
2023/03/09 04:28:40;;;;;;;26.55;17.40;;;;;;;;;;5065629;28;20436;-72
2023/03/09 04:31:06;;;;;;;27.35;17.42;;;;;;;;;;5037761;28;20056;-73
2023/03/09 04:33:32;;;;;;;26.45;17.08;;;;;;;;;;5037227;28;20120;-73
2023/03/09 04:35:58;;;;;;;27.23;16.58;;;;;;;;;;5020485;28;20140;-73
2023/03/09 04:38:24;;;;;;;27.90;16.67;;;;;;;;;;5069459;28;20040;-73
2023/03/09 04:40:50;;;;;;;26.92;16.83;;;;;;;;;;5095633;28;20105;-72
2023/03/09 04:43:16;;;;;;;27.67;16.15;;;;;;;;;;5043444;28;20045;-73
2023/03/09 04:45:42;;;;;;;26.10;16.13;;;;;;;;;;5037589;28;20568;-73
2023/03/09 04:48:08;;;;;;;27.90;16.02;;;;;;;;;;5037135;28;20060;-72
2023/03/09 04:50:34;;;;;;;27.30;15.57;;;;;;;;;;5055355;28;20056;-72
2023/03/09 04:53:00;;;;;;;27.83;16.40;;;;;;;;;;5036919;28;20051;-72
2023/03/09 04:55:26;;;;;;;25.38;16.48;;;;;;;;;;5037386;28;20087;-72
2023/03/09 04:57:52;;;;;;;24.58;15.02;;;;;;;;;;5037376;28;20068;-73
2023/03/09 05:00:18;;;;;;;26.30;15.07;;;;;;;;;;5055263;28;20114;-73
2023/03/09 05:02:44;;;;;;;28.73;16.48;;;;;;;;;;5036964;28;20037;-73
2023/03/09 05:05:10;;;;;;;27.17;16.52;;;;;;;;;;5055272;28;20099;-73
2023/03/09 05:07:37;;;;;;;29.15;17.55;;;;;;;;;;5054716;28;20355;-73
2023/03/09 05:10:03;;;;;;;24.98;16.48;;;;;;;;;;5054804;28;20566;-73
2023/03/09 05:12:31;;;;;;;28.38;18.23;;;;;;;;;;5052159;28;20049;-74
2023/03/09 05:15:00;;;;;;;26.75;17.80;;;;;;;;;;5053422;28;20476;-72
2023/03/09 05:17:26;;;;;;;26.80;17.52;;;;;;;;;;5069446;28;20040;-73
2023/03/09 05:19:52;;;;;;;26.98;18.70;;;;;;;;;;5074115;28;20504;-73
2023/03/09 05:22:18;;;;;;;26.63;17.58;;;;;;;;;;5056467;28;20079;-73
2023/03/09 05:24:44;;;;;;;26.02;16.77;;;;;;;;;;5074551;28;20044;-73
2023/03/09 05:27:12;;;;;;;28.85;18.48;;;;;;;;;;5055710;28;20230;-73
2023/03/09 05:29:38;;;;;;;27.45;18.20;;;;;;;;;;5056429;28;20127;-73
2023/03/09 05:32:05;;;;;;;26.88;16.63;;;;;;;;;;5038891;28;20050;-73
2023/03/09 05:34:31;;;;;;;24.02;17.52;;;;;;;;;;5074213;28;20542;-73
2023/03/09 05:36:57;;;;;;;25.42;17.77;;;;;;;;;;5069842;28;20420;-73
2023/03/09 05:39:23;;;;;;;25.42;17.55;;;;;;;;;;5036323;28;20345;-73
2023/03/09 05:41:49;;;;;;;27.65;18.08;;;;;;;;;;5065902;28;20044;-73
2023/03/09 05:44:15;;;;;;;26.23;17.38;;;;;;;;;;5055998;28;20530;-73
2023/03/09 05:46:41;;;;;;;25.23;16.75;;;;;;;;;;5074520;28;20040;-72
2023/03/09 05:49:07;;;;;;;24.88;17.33;;;;;;;;;;5073977;28;20093;-73
2023/03/09 05:51:34;;;;;;;27.10;17.20;;;;;;;;;;5039357;28;20044;-73
2023/03/09 05:54:00;;;;;;;25.10;17.42;;;;;;;;;;5073762;28;20067;-73
2023/03/09 05:56:26;;;;;;;25.88;17.02;;;;;;;;;;5055222;28;20040;-73
2023/03/09 05:58:52;;;;;;;25.02;17.10;;;;;;;;;;5073660;28;20557;-73
2023/03/09 06:01:19;;;;;;;25.05;16.30;;;;;;;;;;5073679;28;20040;-73
2023/03/09 06:03:46;;;;;;;24.58;16.70;;;;;;;;;;5071817;28;20055;-73
2023/03/09 06:06:12;;;;;;;24.13;17.17;;;;;;;;;;5048187;28;20044;-73
2023/03/09 06:08:38;;;;;;;22.83;15.95;;;;;;;;;;5053308;28;20057;-73
2023/03/09 06:11:04;;;;;;;24.17;16.48;;;;;;;;;;5053579;28;20045;-73
2023/03/09 06:13:30;;;;;;;24.08;16.00;;;;;;;;;;5053265;28;20124;-73
2023/03/09 06:15:56;;;;;;;23.52;16.30;;;;;;;;;;5052602;28;20149;-73
2023/03/09 06:18:22;;;;;;;24.55;16.23;;;;;;;;;;5033724;28;20044;-73
2023/03/09 06:20:48;;;;;;;22.77;15.98;;;;;;;;;;5035420;28;20080;-73
2023/03/09 06:23:14;;;;;;;23.42;15.70;;;;;;;;;;5035208;28;20155;-73
2023/03/09 06:25:41;;;;;;;24.80;16.17;;;;;;;;;;5035332;28;20045;-73
2023/03/09 06:28:07;;;;;;;24.08;15.63;;;;;;;;;;5052986;28;20090;-73
2023/03/09 06:30:33;;;;;;;23.98;15.95;;;;;;;;;;5036296;28;20099;-73
2023/03/09 06:32:59;;;;;;;24.10;15.70;;;;;;;;;;5035196;28;20036;-73
2023/03/09 06:35:25;;;;;;;23.80;15.82;;;;;;;;;;5035402;28;20370;-73
2023/03/09 06:37:52;;;;;;;22.88;15.20;;;;;;;;;;5052211;28;20049;-73
2023/03/09 06:40:18;;;;;;;23.15;15.43;;;;;;;;;;5034879;28;20059;-73
2023/03/09 06:42:44;;;;;;;26.25;15.45;;;;;;;;;;5053587;28;20044;-72
2023/03/09 06:45:10;;;;;;;23.17;16.67;;;;;;;;;;5053176;28;20048;-72
2023/03/09 06:47:36;;;;;;;23.50;16.02;;;;;;;;;;5052759;28;20124;-73
2023/03/09 06:50:03;;;;;;;23.00;15.38;;;;;;;;;;5035172;28;20514;-74
2023/03/09 06:52:29;;;;;;;24.88;15.65;;;;;;;;;;5053516;28;20048;-73
2023/03/09 06:54:55;;;;;;;22.08;15.90;;;;;;;;;;5019075;28;20049;-76
2023/03/09 06:57:21;;;;;;;24.90;15.45;;;;;;;;;;5035453;28;20507;-76
2023/03/09 06:59:48;;;;;;;21.75;15.00;;;;;;;;;;5072681;28;20043;-76
2023/03/09 07:02:14;;;;;;;21.02;14.85;;;;;;;;;;5069943;28;20053;-76
2023/03/09 07:04:41;;;;;;;22.20;15.55;;;;;;;;;;5071579;28;20044;-74
2023/03/09 07:07:08;;;;;;;23.65;15.35;;;;;;;;;;5064038;28;20076;-74
2023/03/09 07:09:34;;;;;;;23.83;16.08;;;;;;;;;;5034424;28;20127;-74
2023/03/09 07:12:00;;;;;;;20.90;14.95;;;;;;;;;;5052143;28;20053;-76
2023/03/09 07:14:27;;;;;;;21.13;15.07;;;;;;;;;;5033979;28;20051;-76
2023/03/09 07:16:53;;;;;;;21.58;15.65;;;;;;;;;;5052339;28;20052;-76
2023/03/09 07:19:19;;;;;;;22.90;16.35;;;;;;;;;;5034215;28;20041;-76
2023/03/09 07:21:45;;;;;;;21.85;15.07;;;;;;;;;;5053750;28;20047;-76
2023/03/09 07:24:11;;;;;;;21.23;14.68;;;;;;;;;;5037907;28;20048;-76
2023/03/09 07:26:37;;;;;;;22.58;15.23;;;;;;;;;;5051724;28;20052;-76
2023/03/09 07:29:03;;;;;;;23.80;15.10;;;;;;;;;;5049497;28;20040;-77
2023/03/09 07:31:29;;;;;;;20.35;14.52;;;;;;;;;;5051903;28;20115;-75
2023/03/09 07:33:56;;;;;;;18.10;13.05;;;;;;;;;;5033680;28;20041;-75
2023/03/09 07:36:22;;;;;;;19.77;12.38;;;;;;;;;;5033941;28;20052;-75
2023/03/09 07:38:49;;;;;;;19.58;12.55;;;;;;;;;;5063905;28;20097;-74
2023/03/09 07:41:15;;;;;;;19.02;12.52;;;;;;;;;;5071664;28;20512;-75
2023/03/09 07:43:43;;;;;;;17.60;12.52;;;;;;;;;;5071538;28;20045;-74
2023/03/09 07:46:09;;;;;;;17.50;11.85;;;;;;;;;;5036567;28;20123;-74
2023/03/09 07:48:37;;;;;;;21.00;12.23;;;;;;;;;;5069079;28;20053;-74
2023/03/09 07:51:04;;;;;;;20.02;11.63;;;;;;;;;;5055716;28;20488;-78
2023/03/09 07:53:31;;;;;;;16.98;11.50;;;;;;;;;;5073575;28;20049;-76
2023/03/09 07:55:58;;;;;;;18.48;11.77;;;;;;;;;;5057903;28;20052;-76
2023/03/09 07:58:24;;;;;;;15.45;11.02;;;;;;;;;;5057410;28;20098;-76
2023/03/09 08:00:50;;;;;;;17.13;11.57;;;;;;;;;;5056154;28;20060;-77
2023/03/09 08:03:16;;;;;;;19.48;11.50;;;;;;;;;;5064072;28;20087;-75
2023/03/09 08:05:43;;;;;;;15.60;11.02;;;;;;;;;;5057930;28;20072;-75
2023/03/09 08:08:11;;;;;;;16.63;12.13;;;;;;;;;;5042630;28;20136;-75
2023/03/09 08:10:37;;;;;;;16.30;11.63;;;;;;;;;;5047764;28;20102;-76
2023/03/09 08:13:03;;;;;;;16.33;10.57;;;;;;;;;;5040342;28;20084;-75
2023/03/09 08:15:30;;;;;;;14.55;9.90;;;;;;;;;;5055432;28;20051;-75
2023/03/09 08:17:56;;;;;;;14.93;10.40;;;;;;;;;;5041687;28;20092;-75
2023/03/09 08:20:22;;;;;;;15.93;10.25;;;;;;;;;;5046911;28;20045;-75
2023/03/09 08:22:48;;;;;;;14.85;10.63;;;;;;;;;;5037686;28;20513;-75
2023/03/09 08:25:14;;;;;;;13.43;9.20;;;;;;;;;;5071275;28;20040;-75
2023/03/09 08:27:45;;;;;;;13.68;9.15;;;;;;;;;;5075069;28;20094;-75
2023/03/09 08:30:11;;;;;;;11.82;8.38;;;;;;;;;;5057558;28;20048;-75
2023/03/09 08:32:38;;;;;;;14.05;8.95;;;;;;;;;;5074253;28;20396;-76
2023/03/09 08:35:04;;;;;;;12.05;8.65;;;;;;;;;;5074952;28;20045;-74
2023/03/09 08:37:30;;;;;;;14.60;9.57;;;;;;;;;;5065566;28;20036;-75
2023/03/09 08:39:56;;;;;;;13.68;8.70;;;;;;;;;;5037411;28;20037;-75
2023/03/09 08:42:22;;;;;;;12.93;8.80;;;;;;;;;;5037227;28;20409;-75
2023/03/09 08:44:48;;;;;;;14.13;9.55;;;;;;;;;;5055315;28;20149;-75
2023/03/09 08:47:14;;;;;;;12.60;8.95;;;;;;;;;;5036934;28;20106;-75
2023/03/09 08:49:43;;;;;;;11.93;8.80;;;;;;;;;;5037652;28;20045;-75
2023/03/09 08:52:10;;;;;;;11.75;8.82;;;;;;;;;;5054396;28;20508;-75
2023/03/09 08:54:36;;;;;;;12.38;8.43;;;;;;;;;;5036959;28;20045;-75
2023/03/09 08:57:02;;;;;;;14.15;9.10;;;;;;;;;;5036809;28;20045;-75
2023/03/09 08:59:28;;;;;;;13.50;9.00;;;;;;;;;;5021086;28;20179;-73
2023/03/09 09:01:54;;;;;;;12.88;8.60;;;;;;;;;;5054322;28;20442;-74
2023/03/09 09:04:20;;;;;;;13.43;8.30;;;;;;;;;;5059433;28;20037;-73
2023/03/09 09:06:46;;;;;;;14.38;8.63;;;;;;;;;;5048194;28;20041;-74
2023/03/09 09:09:12;;;;;;;11.98;8.48;;;;;;;;;;5046799;28;20057;-74
2023/03/09 09:11:39;;;;;;;11.15;7.97;;;;;;;;;;5048625;28;20128;-75
2023/03/09 09:14:05;;;;;;;11.60;8.13;;;;;;;;;;5052986;28;20430;-74
2023/03/09 09:16:31;;;;;;;12.98;8.15;;;;;;;;;;5036409;28;20087;-75
2023/03/09 09:18:57;;;;;;;11.82;8.00;;;;;;;;;;5054415;28;20044;-74
2023/03/09 09:21:23;;;;;;;11.60;8.23;;;;;;;;;;5034251;28;20049;-74
2023/03/09 09:23:50;;;;;;;11.88;8.50;;;;;;;;;;5052992;28;20044;-73
2023/03/09 09:26:16;;;;;;;12.27;8.02;;;;;;;;;;5051976;28;20106;-73
2023/03/09 09:28:43;;;;;;;9.82;7.75;;;;;;;;;;5052752;28;20446;-74
2023/03/09 09:31:12;;;;;;;9.98;7.55;;;;;;;;;;5054131;28;20408;-74
2023/03/09 09:33:38;;;;;;;12.50;7.72;;;;;;;;;;5053030;28;20045;-73
2023/03/09 09:36:05;;;;;;;14.75;7.80;;;;;;;;;;5053134;28;20049;-73
2023/03/09 09:38:33;;;;;;;10.70;5.93;;;;;;;;;;5034872;28;20041;-73
2023/03/09 09:41:02;;;;;;;11.02;6.40;;;;;;;;;;5034130;28;20042;-73
2023/03/09 09:43:30;;;;;;;8.77;6.68;;;;;;;;;;5043378;28;20425;-73
2023/03/09 09:45:59;;;;;;;9.38;6.78;;;;;;;;;;5019558;28;20055;-74
2023/03/09 09:48:26;;;;;;;8.55;6.43;;;;;;;;;;5044934;28;20072;-74
2023/03/09 09:51:10;;;;;;;8.90;6.57;;;;;;;;;;5032033;28;20049;-74
2023/03/09 09:53:39;;;;;;;9.18;6.32;;;;;;;;;;5049759;28;20045;-75
2023/03/09 09:56:09;;;;;;;7.95;6.03;;;;;;;;;;5053815;28;20044;-74
2023/03/09 09:58:46;;;;;;;9.57;5.75;;;;;;;;;;5051678;28;20124;-73
2023/03/09 10:01:17;;;;;;;9.13;6.40;;;;;;;;;;5053373;28;20052;-75
2023/03/09 10:03:46;;;;;;;10.45;6.40;;;;;;;;;;5052283;28;20492;-74
2023/03/09 10:06:25;;;;;;;7.63;5.90;;;;;;;;;;5033912;28;20060;-75
2023/03/09 10:09:01;;;;;;;9.73;6.28;;;;;;;;;;5048711;28;20060;-75
2023/03/09 10:11:36;;;;;;;9.85;6.18;;;;;;;;;;5019235;28;20048;-75
2023/03/09 10:14:08;;;;;;;7.25;5.60;;;;;;;;;;5067215;28;20068;-75
2023/03/09 10:16:38;;;;;;;7.72;5.55;;;;;;;;;;5040637;28;20606;-80
2023/03/09 10:19:05;;;;;;;6.80;5.72;;;;;;;;;;5015978;28;20053;-80
2023/03/09 10:21:37;;;;;;;7.07;5.50;;;;;;;;;;5050671;28;20254;-80
2023/03/09 10:24:20;;;;;;;9.18;5.13;;;;;;;;;;5045836;28;20056;-80
2023/03/09 10:26:51;;;;;;;10.45;5.22;;;;;;;;;;5070282;28;20040;-80
2023/03/09 10:29:25;;;;;;;8.55;5.30;;;;;;;;;;5051929;28;20074;-80
2023/03/09 10:31:55;;;;;;;10.43;5.20;;;;;;;;;;5051812;28;20041;-80
2023/03/09 10:34:26;;;;;;;7.90;5.10;;;;;;;;;;5069942;28;20052;-80
2023/03/09 10:36:54;;;;;;;6.85;4.85;;;;;;;;;;5066013;28;20053;-79
2023/03/09 10:39:21;;;;;;;9.82;4.10;;;;;;;;;;5064624;28;20483;-79
2023/03/09 10:41:47;;;;;;;7.78;4.75;;;;;;;;;;5051577;28;20361;-79
2023/03/09 10:44:14;;;;;;;6.65;4.63;;;;;;;;;;5052401;28;20405;-79
2023/03/09 10:46:59;;;;;;;7.15;4.63;;;;;;;;;;5032228;28;20111;-80
2023/03/09 10:49:26;;;;;;;7.68;5.25;;;;;;;;;;5036712;28;20088;-75
2023/03/09 10:51:58;;;;;;;6.85;5.10;;;;;;;;;;5052510;28;20051;-75
2023/03/09 10:54:30;;;;;;;6.63;5.13;;;;;;;;;;5034972;28;20048;-74
2023/03/09 10:56:57;;;;;;;7.10;4.90;;;;;;;;;;5052458;28;20044;-75
2023/03/09 10:59:23;;;;;;;5.82;4.47;;;;;;;;;;5052914;28;20430;-75
2023/03/09 11:01:53;;;;;;;6.80;4.95;;;;;;;;;;5035083;28;20130;-74
2023/03/09 11:04:22;;;;;;;9.35;4.70;;;;;;;;;;5052370;28;20045;-75
2023/03/09 11:06:51;;;;;;;6.97;4.75;;;;;;;;;;5052580;28;20044;-75
2023/03/09 11:09:45;;;;;;;5.88;4.63;;;;;;;;;;5051885;28;20068;-75
2023/03/09 11:12:30;;;;;;;9.35;5.15;;;;;;;;;;5052283;28;20363;-74
2023/03/09 11:14:59;;;;;;;8.35;5.07;;;;;;;;;;5051721;28;20045;-75
2023/03/09 11:17:39;;;;;;;7.90;5.25;;;;;;;;;;5052386;28;20132;-75
2023/03/09 11:20:24;;;;;;;8.43;5.10;;;;;;;;;;5017803;28;20048;-75
2023/03/09 11:22:52;;;;;;;7.47;5.10;;;;;;;;;;5033915;28;20137;-75
2023/03/09 11:25:21;;;;;;;7.53;5.35;;;;;;;;;;5017421;28;20390;-75
2023/03/09 11:27:54;;;;;;;6.80;5.35;;;;;;;;;;5052076;28;20045;-74
2023/03/09 11:30:22;;;;;;;8.50;5.22;;;;;;;;;;5050414;28;20246;-74
2023/03/09 11:32:49;;;;;;;7.10;4.93;;;;;;;;;;5033991;28;20076;-75
2023/03/09 11:35:17;;;;;;;7.13;5.28;;;;;;;;;;5052400;28;20144;-75
2023/03/09 11:38:02;;;;;;;9.80;5.63;;;;;;;;;;5044370;28;20359;-75
2023/03/09 11:40:29;;;;;;;7.78;4.95;;;;;;;;;;5072035;28;20550;-75
2023/03/09 11:43:06;;;;;;;5.75;4.50;;;;;;;;;;5071499;28;20106;-75
2023/03/09 11:45:33;;;;;;;9.95;5.10;;;;;;;;;;5054287;28;20044;-75
2023/03/09 11:48:11;;;;;;;7.82;4.70;;;;;;;;;;5053631;28;20388;-75
2023/03/09 11:50:53;;;;;;;11.82;4.97;;;;;;;;;;5053985;28;20106;-75
2023/03/09 11:53:24;;;;;;;6.07;4.50;;;;;;;;;;5052882;28;20136;-74
2023/03/09 11:55:53;;;;;;;7.85;5.18;;;;;;;;;;5072047;28;20053;-74
2023/03/09 11:58:26;;;;;;;6.63;5.07;;;;;;;;;;5071517;28;20056;-75
2023/03/09 12:00:56;;;;;;;8.32;5.43;;;;;;;;;;5072199;28;20109;-75
2023/03/09 12:03:22;;;;;;;6.80;4.80;;;;;;;;;;5071359;28;20044;-74
2023/03/09 12:05:50;;;;;;;8.13;5.50;;;;;;;;;;5072072;28;20048;-75
2023/03/09 12:08:25;;;;;;;7.70;5.40;;;;;;;;;;5071515;28;20151;-74
2023/03/09 12:11:00;;;;;;;8.18;5.47;;;;;;;;;;5053778;28;20056;-75
2023/03/09 12:13:49;;;;;;;7.10;4.88;;;;;;;;;;5036857;28;20377;-75
2023/03/09 12:16:27;;;;;;;9.15;5.70;;;;;;;;;;5071532;28;20045;-75
2023/03/09 12:18:58;;;;;;;7.22;5.18;;;;;;;;;;5071702;28;20071;-74
2023/03/09 12:21:30;;;;;;;9.23;4.72;;;;;;;;;;5053757;28;20049;-75
2023/03/09 12:23:57;;;;;;;7.72;5.43;;;;;;;;;;5071325;28;20075;-74
2023/03/09 12:26:24;;;;;;;8.13;5.57;;;;;;;;;;5071593;28;20109;-75
2023/03/09 12:29:01;;;;;;;6.47;4.90;;;;;;;;;;5053056;28;20131;-75
2023/03/09 12:31:31;;;;;;;7.78;5.00;;;;;;;;;;5053435;28;20045;-75
2023/03/09 12:33:57;;;;;;;8.75;5.10;;;;;;;;;;5053481;28;20426;-74
2023/03/09 12:36:25;;;;;;;7.30;5.03;;;;;;;;;;5055704;28;20139;-76
2023/03/09 12:39:10;;;;;;;7.15;4.82;;;;;;;;;;5040509;28;20385;-75
2023/03/09 12:41:56;;;;;;;6.72;4.70;;;;;;;;;;5055399;28;20075;-75
2023/03/09 12:44:42;;;;;;;7.15;4.90;;;;;;;;;;5037560;28;20051;-74
2023/03/09 12:47:21;;;;;;;7.70;5.32;;;;;;;;;;5056176;28;20052;-74
2023/03/09 12:50:10;;;;;;;8.38;5.38;;;;;;;;;;5056849;28;20163;-74
2023/03/09 12:53:02;;;;;;;8.07;5.57;;;;;;;;;;5073395;28;20134;-76
2023/03/09 12:55:35;;;;;;;8.23;5.85;;;;;;;;;;5071784;28;20087;-73
2023/03/09 12:58:21;;;;;;;8.35;5.72;;;;;;;;;;5056792;28;20323;-76
2023/03/09 13:00:47;;;;;;;;;;;;;;;;;;5062882;28;20405;-73
2023/03/09 13:03:17;;;;;;;7.95;5.68;;;;;;;;;;5072505;28;19920;-75
2023/03/09 13:05:48;;;;;;;8.98;5.95;;;;;;;;;;5074896;28;20397;-73
2023/03/09 13:08:28;;;;;;;7.93;5.97;;;;;;;;;;5056543;28;20048;-73
2023/03/09 13:11:13;;;;;;;7.57;5.50;;;;;;;;;;5056600;28;20044;-73
2023/03/09 13:13:41;;;;;;;8.95;5.80;;;;;;;;;;5072039;28;20484;-74
2023/03/09 13:16:26;;;;;;;8.23;5.45;;;;;;;;;;5056860;28;20080;-73
2023/03/09 13:19:12;;;;;;;11.10;6.30;;;;;;;;;;5074016;28;20457;-74
2023/03/09 13:21:39;;;;;;;;;;;;;;;;;;5040178;28;20048;-74
2023/03/09 13:24:11;;;;;;;7.45;6.10;;;;;;;;;;5055936;28;19920;-73
2023/03/09 13:26:37;;;;;;;9.43;6.60;;;;;;;;;;5039477;28;20048;-74
2023/03/09 13:29:08;;;;;;;9.18;6.60;;;;;;;;;;5055970;28;20044;-73
2023/03/09 13:31:34;;;;;;;9.90;6.63;;;;;;;;;;5039874;28;20128;-73
2023/03/09 13:34:00;;;;;;;8.65;6.90;;;;;;;;;;5073665;28;20044;-74
2023/03/09 13:36:27;;;;;;;10.40;7.72;;;;;;;;;;5056171;28;20535;-73
2023/03/09 13:39:05;;;;;;;10.40;7.10;;;;;;;;;;5053655;28;20067;-74
2023/03/09 13:41:32;;;;;;;12.30;7.50;;;;;;;;;;5054293;28;20120;-74
2023/03/09 13:43:59;;;;;;;9.48;6.90;;;;;;;;;;5053561;28;20508;-74
2023/03/09 13:46:29;;;;;;;10.68;7.20;;;;;;;;;;5036536;28;20053;-75
2023/03/09 13:49:00;;;;;;;10.35;7.15;;;;;;;;;;5034968;28;20045;-74
2023/03/09 13:51:39;;;;;;;10.63;7.57;;;;;;;;;;5035912;28;20049;-74
2023/03/09 13:54:05;;;;;;;10.90;7.88;;;;;;;;;;5053002;28;20442;-74
2023/03/09 13:56:31;;;;;;;12.25;7.80;;;;;;;;;;5036350;28;20421;-75
2023/03/09 13:58:58;;;;;;;11.77;7.55;;;;;;;;;;5035559;28;20118;-75
2023/03/09 14:01:26;;;;;;;10.90;7.90;;;;;;;;;;5053252;28;20056;-74
2023/03/09 14:03:56;;;;;;;11.13;7.25;;;;;;;;;;5035680;28;20128;-74
2023/03/09 14:06:42;;;;;;;9.55;7.43;;;;;;;;;;5051447;28;20044;-74
2023/03/09 14:09:08;;;;;;;;;;;;;;;;;;5052140;28;20049;-74
2023/03/09 14:11:34;;;;;;;12.13;7.97;;;;;;;;;;5053026;28;20361;-74
2023/03/09 14:14:04;;;;;;;10.85;8.20;;;;;;;;;;5052988;28;20098;-74
2023/03/09 14:16:31;;;;;;;11.48;8.55;;;;;;;;;;5035492;28;20052;-74
2023/03/09 14:18:58;;;;;;;11.48;8.23;;;;;;;;;;5052629;28;20048;-74
2023/03/09 14:21:26;;;;;;;10.77;8.30;;;;;;;;;;5053489;28;20056;-79
2023/03/09 14:23:53;;;;;;;10.88;8.70;;;;;;;;;;5035206;28;20049;-79
2023/03/09 14:26:29;;;;;;;10.75;8.57;;;;;;;;;;5052742;28;20044;-79
2023/03/09 14:29:21;;;;;;;11.05;8.63;;;;;;;;;;5052635;28;20190;-79
2023/03/09 14:31:48;;;;;;;11.18;8.05;;;;;;;;;;5038175;28;20049;-79
2023/03/09 14:34:17;;;;;;;10.45;8.27;;;;;;;;;;5054479;28;20057;-80